Time;durP1;ratioP1;P1;durP2;ratioP2;P2;SDS_P1;SDS_P2;PMS_P1;PMS_P2;Temp;Humidity;BMP_temperature;BMP_pressure;BME280_temperature;BME280_humidity;BME280_pressure;Samples;Min_cycle;Max_cycle;Signal;HPM_P1;HPM_P2
2023/05/11 00:00:39;;;;;;;2.78;1.65;;;19.00;1.00;;;;;;4828623;29;20050;-43
2023/05/11 00:03:06;;;;;;;1.85;1.25;;;19.00;1.00;;;;;;4835701;29;20606;-44
2023/05/11 00:05:33;;;;;;;2.80;1.48;;;18.90;1.00;;;;;;4843305;29;20561;-43
2023/05/11 00:08:00;;;;;;;4.30;1.40;;;19.00;1.00;;;;;;4843370;29;20041;-43
2023/05/11 00:13:25;;;;;;;1.60;1.17;;;18.90;1.00;;;;;;4838864;29;20175;-44
2023/05/11 00:15:52;;;;;;;2.92;1.52;;;19.00;1.00;;;;;;4835427;29;20398;-44
2023/05/11 00:18:18;;;;;;;2.38;1.27;;;18.90;1.00;;;;;;4835810;29;20074;-46
2023/05/11 00:20:45;;;;;;;1.67;1.10;;;18.90;1.00;;;;;;4842965;29;20406;-45
2023/05/11 00:23:12;;;;;;;1.70;1.35;;;18.90;1.00;;;;;;4843423;29;20062;-44
2023/05/11 00:25:39;;;;;;;2.17;1.27;;;18.90;1.00;;;;;;4835968;29;20038;-44
2023/05/11 00:28:06;;;;;;;1.85;1.30;;;18.90;1.00;;;;;;4835153;29;20107;-44
2023/05/11 00:30:33;;;;;;;1.77;1.15;;;18.90;1.00;;;;;;4843261;29;20465;-44
2023/05/11 00:33:00;;;;;;;3.15;1.60;;;18.90;1.00;;;;;;4849443;29;20047;-44
2023/05/11 00:35:27;;;;;;;2.00;1.25;;;18.90;1.00;;;;;;4842746;29;20044;-45
2023/05/11 00:37:54;;;;;;;3.20;1.85;;;18.90;1.00;;;;;;4848554;29;20054;-45
2023/05/11 00:40:21;;;;;;;2.47;1.83;;;18.90;1.00;;;;;;4835437;29;20041;-43
2023/05/11 00:42:47;;;;;;;1.65;0.95;;;18.90;1.00;;;;;;4892625;23;20058;-44
2023/05/11 00:45:14;;;;;;;1.65;1.00;;;18.90;1.00;;;;;;4820248;29;20043;-44
2023/05/11 00:47:41;;;;;;;2.10;1.27;;;18.90;1.00;;;;;;4821614;29;20103;-47
2023/05/11 00:50:08;;;;;;;1.98;1.08;;;18.90;1.00;;;;;;4812601;29;20141;-45
2023/05/11 00:52:35;;;;;;;1.45;1.25;;;18.90;1.00;;;;;;4820373;29;20046;-45
2023/05/11 00:55:02;;;;;;;1.60;1.08;;;18.90;1.00;;;;;;4824090;29;20082;-44
2023/05/11 00:57:32;;;;;;;3.42;1.60;;;18.90;1.00;;;;;;4824188;29;20495;-44
2023/05/11 01:00:01;;;;;;;4.40;1.95;;;18.90;1.00;;;;;;4818385;29;20062;-45
2023/05/11 01:02:29;;;;;;;2.83;1.88;;;18.90;1.00;;;;;;4810558;29;20069;-44
2023/05/11 01:04:56;;;;;;;3.78;1.92;;;18.80;1.00;;;;;;4823915;29;20495;-44
2023/05/11 01:07:32;;;;;;;2.60;1.70;;;18.80;1.00;;;;;;4819283;29;20043;-44
2023/05/11 01:10:09;;;;;;;2.53;1.80;;;18.90;1.00;;;;;;4813972;29;20106;-44
2023/05/11 01:12:57;;;;;;;4.35;1.80;;;18.80;1.00;;;;;;4822373;29;20381;-44
2023/05/11 01:16:32;;;;;;;1.88;1.30;;;18.80;1.00;;;;;;4822580;29;20061;-44
2023/05/11 01:19:40;;;;;;;3.17;1.60;;;18.80;1.00;;;;;;4777865;29;20496;-44
2023/05/11 01:22:37;;;;;;;2.40;1.90;;;18.80;1.00;;;;;;4770432;29;20504;-44
2023/05/11 01:25:30;;;;;;;3.63;2.17;;;18.80;1.00;;;;;;4821571;29;20058;-44
2023/05/11 01:28:17;;;;;;;4.13;2.15;;;18.80;1.00;;;;;;4796353;29;20453;-44
2023/05/11 01:30:50;;;;;;;2.72;1.77;;;18.80;1.00;;;;;;4819433;29;20047;-44
2023/05/11 01:33:40;;;;;;;8.10;1.98;;;18.80;1.00;;;;;;4810551;29;20069;-44
2023/05/11 01:36:09;;;;;;;2.80;1.90;;;18.80;1.00;;;;;;4820787;29;20058;-45
2023/05/11 01:38:41;;;;;;;3.10;2.15;;;18.80;1.00;;;;;;4818147;29;20141;-44
2023/05/11 01:41:13;;;;;;;2.90;1.98;;;18.70;1.00;;;;;;4819702;29;20046;-44
2023/05/11 01:43:43;;;;;;;2.97;1.70;;;18.80;1.00;;;;;;5103961;24;20492;-43
2023/05/11 01:46:11;;;;;;;3.25;2.22;;;18.80;1.00;;;;;;4816005;29;20035;-43
2023/05/11 01:48:43;;;;;;;3.63;1.83;;;18.80;1.00;;;;;;4818234;29;20046;-44
2023/05/11 01:51:11;;;;;;;2.90;2.30;;;18.70;1.00;;;;;;4813163;29;20049;-45
2023/05/11 01:53:39;;;;;;;4.45;2.50;;;18.80;1.00;;;;;;4821624;29;20047;-45
2023/05/11 01:56:08;;;;;;;4.93;3.10;;;18.80;1.00;;;;;;4811970;29;20051;-44
2023/05/11 01:58:37;;;;;;;5.00;2.83;;;18.70;1.00;;;;;;4825329;29;20051;-43
2023/05/11 02:01:05;;;;;;;4.18;2.50;;;18.80;1.00;;;;;;4821598;29;20099;-44
2023/05/11 02:03:35;;;;;;;6.57;2.53;;;18.70;1.00;;;;;;4822061;29;20058;-45
2023/05/11 02:06:04;;;;;;;4.80;3.00;;;18.70;1.00;;;;;;4820015;29;20046;-43
2023/05/11 02:08:32;;;;;;;3.60;2.42;;;18.70;1.00;;;;;;4819412;29;20046;-44
2023/05/11 02:11:01;;;;;;;4.00;2.28;;;18.70;1.00;;;;;;4820051;29;20143;-44
2023/05/11 02:13:29;;;;;;;6.25;2.63;;;18.70;1.00;;;;;;4814336;29;20396;-44
2023/05/11 02:15:57;;;;;;;2.95;2.05;;;18.70;1.00;;;;;;4910215;23;20053;-44
2023/05/11 02:18:25;;;;;;;4.43;2.25;;;18.70;1.00;;;;;;4832607;29;20308;-44
2023/05/11 02:20:58;;;;;;;5.60;2.55;;;18.70;1.00;;;;;;4816278;29;20428;-44
2023/05/11 02:23:26;;;;;;;3.33;2.72;;;18.70;1.00;;;;;;4832135;29;20039;-44
2023/05/11 02:25:55;;;;;;;4.60;2.53;;;18.70;1.00;;;;;;4819845;29;20112;-44
2023/05/11 02:28:22;;;;;;;4.72;2.75;;;18.70;1.00;;;;;;4818997;29;20046;-44
2023/05/11 02:30:54;;;;;;;5.03;2.63;;;18.70;1.00;;;;;;4819964;29;20106;-44
2023/05/11 02:33:31;;;;;;;3.47;2.33;;;18.70;1.00;;;;;;4823573;29;20091;-44
2023/05/11 02:35:59;;;;;;;4.85;2.33;;;18.70;1.00;;;;;;4814966;29;20047;-45
2023/05/11 02:38:33;;;;;;;4.38;2.53;;;18.70;1.00;;;;;;4821948;29;20393;-45
2023/05/11 02:41:06;;;;;;;4.25;2.33;;;18.70;1.00;;;;;;4821584;29;20149;-44
2023/05/11 02:43:36;;;;;;;4.10;2.55;;;18.70;1.00;;;;;;4821571;29;20068;-45
2023/05/11 02:46:07;;;;;;;4.43;2.10;;;18.70;1.00;;;;;;4883944;23;20073;-43
2023/05/11 02:48:44;;;;;;;4.20;2.83;;;18.60;1.00;;;;;;4834913;29;20086;-44
2023/05/11 02:51:14;;;;;;;4.05;2.30;;;18.70;1.00;;;;;;4839502;29;20065;-44
2023/05/11 02:53:47;;;;;;;6.43;2.80;;;18.60;1.00;;;;;;4832744;29;20046;-44
2023/05/11 02:56:15;;;;;;;4.78;2.85;;;18.60;1.00;;;;;;4835941;29;20046;-44
2023/05/11 02:58:42;;;;;;;4.03;2.63;;;18.60;1.00;;;;;;4827988;29;20088;-43
2023/05/11 03:01:17;;;;;;;3.85;2.53;;;18.60;1.00;;;;;;4845448;29;20050;-44
2023/05/11 03:03:44;;;;;;;3.92;2.50;;;18.60;1.00;;;;;;4838158;29;20049;-43
2023/05/11 03:06:12;;;;;;;3.08;1.88;;;18.60;1.00;;;;;;4835078;29;20046;-43
2023/05/11 03:08:40;;;;;;;3.08;2.25;;;18.60;1.00;;;;;;4828624;29;20042;-44
2023/05/11 03:11:09;;;;;;;3.88;2.15;;;18.60;1.00;;;;;;4842309;29;20050;-44
2023/05/11 03:13:37;;;;;;;5.45;3.20;;;18.60;1.00;;;;;;4827061;29;20426;-44
2023/05/11 03:16:06;;;;;;;3.13;2.10;;;18.60;1.00;;;;;;4836456;29;20054;-43
2023/05/11 03:18:35;;;;;;;4.72;2.42;;;18.60;1.00;;;;;;4845612;29;20042;-44
2023/05/11 03:21:04;;;;;;;5.45;2.83;;;18.60;1.00;;;;;;4839085;29;20050;-43
2023/05/11 03:23:32;;;;;;;3.22;2.25;;;18.60;1.00;;;;;;4837847;29;20041;-44
2023/05/11 03:26:01;;;;;;;3.58;2.58;;;18.60;1.00;;;;;;4829839;29;20069;-46
2023/05/11 03:28:29;;;;;;;4.22;2.13;;;18.60;1.00;;;;;;4840888;29;20121;-43
2023/05/11 03:31:00;;;;;;;2.25;1.63;;;18.60;1.00;;;;;;4835909;29;20130;-44
2023/05/11 03:33:29;;;;;;;4.53;2.03;;;18.50;1.00;;;;;;4834739;29;20043;-43
2023/05/11 03:35:58;;;;;;;4.28;2.08;;;18.60;1.00;;;;;;4834892;29;20054;-43
2023/05/11 03:38:28;;;;;;;3.10;2.30;;;18.50;1.00;;;;;;4833508;29;20133;-44
2023/05/11 03:40:56;;;;;;;4.15;2.10;;;18.60;1.00;;;;;;4834685;29;20086;-44
2023/05/11 03:43:27;;;;;;;3.78;2.10;;;18.50;1.00;;;;;;4845195;29;20054;-43
2023/05/11 03:45:56;;;;;;;3.67;2.50;;;18.50;1.00;;;;;;4844562;29;20499;-45
2023/05/11 03:48:25;;;;;;;3.22;2.22;;;18.50;1.00;;;;;;4879275;23;20117;-43
2023/05/11 03:50:52;;;;;;;5.80;2.67;;;18.50;1.00;;;;;;4845201;29;20058;-43
2023/05/11 03:53:19;;;;;;;4.43;2.08;;;18.50;1.00;;;;;;4842030;29;20425;-43
2023/05/11 03:55:48;;;;;;;4.43;2.05;;;18.50;1.00;;;;;;4833715;29;20125;-45
2023/05/11 03:58:15;;;;;;;3.40;2.20;;;18.50;1.00;;;;;;4845128;29;20043;-43
2023/05/11 04:00:42;;;;;;;2.53;1.77;;;18.50;1.00;;;;;;4840402;29;20123;-44
2023/05/11 04:03:10;;;;;;;2.47;1.92;;;18.50;1.00;;;;;;4844892;29;20042;-43
2023/05/11 04:05:37;;;;;;;2.78;2.03;;;18.50;1.00;;;;;;4837312;29;20475;-45
2023/05/11 04:08:08;;;;;;;4.78;2.45;;;18.50;1.00;;;;;;4844963;29;20106;-44
2023/05/11 04:10:37;;;;;;;2.63;1.77;;;18.50;1.00;;;;;;4844508;29;20050;-44
2023/05/11 04:13:03;;;;;;;3.47;2.40;;;18.50;1.00;;;;;;4833594;29;20042;-43
2023/05/11 04:15:30;;;;;;;2.70;1.63;;;18.50;1.00;;;;;;4832394;29;20050;-43
2023/05/11 04:17:57;;;;;;;2.40;1.90;;;18.50;1.00;;;;;;5140942;23;20036;-43
2023/05/11 04:20:24;;;;;;;6.00;2.40;;;18.50;1.00;;;;;;4833150;29;20065;-43
2023/05/11 04:22:51;;;;;;;3.35;2.00;;;18.50;1.00;;;;;;4832742;29;20098;-43
2023/05/11 04:25:18;;;;;;;3.67;2.20;;;18.50;1.00;;;;;;4841370;29;20046;-43
2023/05/11 04:27:44;;;;;;;2.38;1.73;;;18.50;1.00;;;;;;4842964;29;20074;-43
2023/05/11 04:30:11;;;;;;;2.95;2.03;;;18.40;1.00;;;;;;4825692;29;20046;-43
2023/05/11 04:32:38;;;;;;;3.03;1.73;;;18.50;1.00;;;;;;4835205;29;20076;-43
2023/05/11 04:35:07;;;;;;;2.72;1.77;;;18.40;1.00;;;;;;4831094;29;20051;-43
2023/05/11 04:37:36;;;;;;;2.20;1.77;;;18.40;1.00;;;;;;4828358;29;20468;-43
2023/05/11 04:40:06;;;;;;;2.92;1.98;;;18.40;1.00;;;;;;4839050;29;20081;-43
2023/05/11 04:42:38;;;;;;;2.95;1.90;;;18.40;1.00;;;;;;4836470;29;20053;-43
2023/05/11 04:45:08;;;;;;;4.07;1.98;;;18.40;1.00;;;;;;4838911;29;20046;-43
2023/05/11 04:47:35;;;;;;;4.22;1.92;;;18.40;1.00;;;;;;4842689;29;20046;-43
2023/05/11 04:52:58;;;;;;;4.18;1.40;;;18.40;1.00;;;;;;4896229;23;20050;-43
2023/05/11 04:55:25;;;;;;;2.63;1.65;;;18.40;1.00;;;;;;4841117;29;20064;-45
2023/05/11 04:57:54;;;;;;;3.08;1.98;;;18.40;1.00;;;;;;4841366;29;20133;-44
2023/05/11 05:00:21;;;;;;;2.45;1.60;;;18.40;1.00;;;;;;4839336;29;20034;-44
2023/05/11 05:02:49;;;;;;;2.45;1.40;;;18.40;1.00;;;;;;4835041;29;20046;-44
2023/05/11 05:05:17;;;;;;;4.40;1.75;;;18.40;1.00;;;;;;4840797;29;20398;-45
2023/05/11 05:07:43;;;;;;;2.85;1.90;;;18.30;1.00;;;;;;4842560;29;20119;-44
2023/05/11 05:10:11;;;;;;;2.92;1.70;;;18.40;1.00;;;;;;4833531;29;20457;-45
2023/05/11 05:12:38;;;;;;;2.33;1.30;;;18.40;1.00;;;;;;4828538;29;20077;-44
2023/05/11 05:15:06;;;;;;;2.53;1.80;;;18.40;1.00;;;;;;4823321;29;20396;-44
2023/05/11 05:17:34;;;;;;;2.30;1.85;;;18.40;1.00;;;;;;4840955;29;20050;-44
2023/05/11 05:20:03;;;;;;;2.72;1.35;;;18.40;1.00;;;;;;4842158;29;20053;-44
2023/05/11 05:22:30;;;;;;;2.60;1.38;;;18.30;1.00;;;;;;4836762;29;20050;-44
2023/05/11 05:34:06;;;;;;;2.92;1.60;;;18.30;1.00;;;;;;5274174;23;20441;-44
2023/05/11 05:36:34;;;;;;;3.75;1.55;;;18.30;1.00;;;;;;4834372;29;20137;-44
2023/05/11 05:39:02;;;;;;;2.65;1.45;;;18.30;1.00;;;;;;4840183;29;20052;-44
2023/05/11 05:41:29;;;;;;;2.80;1.40;;;18.30;1.00;;;;;;4831905;29;20533;-44
2023/05/11 05:43:56;;;;;;;2.92;1.73;;;18.30;1.00;;;;;;4826157;29;20114;-45
2023/05/11 05:46:23;;;;;;;2.85;1.58;;;18.30;1.00;;;;;;4829311;29;20066;-45
2023/05/11 05:48:50;;;;;;;1.80;1.60;;;18.30;1.00;;;;;;4831258;29;20047;-45
2023/05/11 05:51:17;;;;;;;2.40;1.42;;;18.30;1.00;;;;;;4839234;29;20138;-44
2023/05/11 05:53:45;;;;;;;2.35;1.50;;;18.30;1.00;;;;;;4834822;29;20050;-44
2023/05/11 05:56:12;;;;;;;3.80;1.65;;;18.30;1.00;;;;;;4830661;29;20114;-42
2023/05/11 05:58:38;;;;;;;2.88;1.20;;;18.30;1.00;;;;;;4832825;29;20058;-44
2023/05/11 06:01:05;;;;;;;3.72;1.27;;;18.30;1.00;;;;;;4840103;29;20473;-43
2023/05/11 06:03:32;;;;;;;1.73;1.38;;;18.30;1.00;;;;;;4833993;29;20487;-45
2023/05/11 06:06:01;;;;;;;1.77;1.17;;;18.30;1.00;;;;;;4826431;29;20415;-43
2023/05/11 06:08:28;;;;;;;2.35;1.30;;;18.30;1.00;;;;;;4822341;29;20046;-43
2023/05/11 06:10:55;;;;;;;1.50;1.10;;;18.30;1.00;;;;;;4836147;29;20057;-43
2023/05/11 06:13:21;;;;;;;2.42;1.63;;;18.30;1.00;;;;;;4829845;29;20573;-47
2023/05/11 06:15:48;;;;;;;3.13;1.85;;;18.30;1.00;;;;;;4828819;29;20073;-46
2023/05/11 06:18:24;;;;;;;1.50;1.08;;;18.30;1.00;;;;;;4839769;29;20050;-44
2023/05/11 06:20:51;;;;;;;0.82;0.75;;;18.30;1.00;;;;;;4826386;29;20058;-44
2023/05/11 06:23:18;;;;;;;2.42;1.40;;;18.20;1.00;;;;;;4829016;29;20050;-47
2023/05/11 06:25:46;;;;;;;1.80;1.00;;;18.30;1.00;;;;;;4834537;29;20069;-45
2023/05/11 06:28:13;;;;;;;1.80;0.98;;;18.20;1.00;;;;;;4830854;29;20053;-45
2023/05/11 06:30:40;;;;;;;1.60;1.10;;;18.30;1.00;;;;;;4829397;29;20052;-44
2023/05/11 06:33:08;;;;;;;2.95;1.35;;;18.30;1.00;;;;;;4829747;29;20062;-44
2023/05/11 06:35:36;;;;;;;3.50;1.27;;;18.30;1.00;;;;;;4834547;29;20103;-44
2023/05/11 06:38:06;;;;;;;1.30;0.80;;;18.30;1.00;;;;;;4836813;29;20502;-45
2023/05/11 06:40:34;;;;;;;1.75;1.20;;;18.30;1.00;;;;;;4832217;29;20053;-45
2023/05/11 06:43:01;;;;;;;1.58;1.15;;;18.30;1.00;;;;;;4840853;29;20075;-44
2023/05/11 06:45:44;;;;;;;2.28;1.27;;;18.30;1.00;;;;;;4840738;29;20103;-44
2023/05/11 06:48:11;;;;;;;2.42;1.30;;;18.20;1.00;;;;;;4831901;29;20054;-44
2023/05/11 06:50:38;;;;;;;2.15;1.00;;;18.20;1.00;;;;;;4833421;29;20053;-44
2023/05/11 06:53:05;;;;;;;1.42;0.98;;;18.20;1.00;;;;;;4833015;29;20117;-45
2023/05/11 06:55:32;;;;;;;1.25;0.77;;;18.20;1.00;;;;;;4840520;29;20494;-44
2023/05/11 06:57:59;;;;;;;1.83;1.00;;;18.20;1.00;;;;;;4840799;29;20125;-44
2023/05/11 07:00:26;;;;;;;1.30;0.68;;;18.20;1.00;;;;;;4822965;29;20043;-44
2023/05/11 07:02:52;;;;;;;1.55;0.93;;;18.20;1.00;;;;;;4822611;29;20043;-44
2023/05/11 07:05:19;;;;;;;1.63;0.82;;;18.20;1.00;;;;;;4831409;29;20046;-44
2023/05/11 07:07:46;;;;;;;3.35;1.05;;;18.20;1.00;;;;;;4833258;29;20061;-44
2023/05/11 07:10:13;;;;;;;1.20;0.90;;;18.20;1.00;;;;;;4825573;29;20081;-45
2023/05/11 07:12:39;;;;;;;3.58;1.20;;;18.20;1.00;;;;;;4833263;29;20476;-44
2023/05/11 07:15:07;;;;;;;3.28;1.05;;;18.20;1.00;;;;;;4832780;29;20095;-45
2023/05/11 07:17:33;;;;;;;3.33;1.00;;;18.20;1.00;;;;;;4836823;29;20095;-45
2023/05/11 07:20:00;;;;;;;1.77;0.77;;;18.20;1.00;;;;;;4837258;29;20114;-44
2023/05/11 07:22:27;;;;;;;2.03;0.88;;;18.20;1.00;;;;;;4833219;29;20045;-44
2023/05/11 07:24:54;;;;;;;1.52;0.93;;;18.20;1.00;;;;;;4834362;29;20120;-44
2023/05/11 07:27:20;;;;;;;1.70;1.05;;;18.20;1.00;;;;;;4829434;29;20054;-44
2023/05/11 07:29:47;;;;;;;2.00;1.05;;;18.20;1.00;;;;;;4834971;29;20050;-45
2023/05/11 07:32:14;;;;;;;1.50;0.80;;;18.20;1.00;;;;;;4825277;29;20050;-44
2023/05/11 07:34:41;;;;;;;2.35;0.93;;;18.20;1.00;;;;;;4835916;29;20115;-47
2023/05/11 07:37:08;;;;;;;3.83;0.85;;;18.20;1.00;;;;;;4829333;29;20057;-44
2023/05/11 07:39:35;;;;;;;1.20;1.05;;;18.20;1.00;;;;;;4822338;29;20050;-45
2023/05/11 07:42:02;;;;;;;2.83;1.00;;;18.20;1.00;;;;;;4837185;29;20102;-45
2023/05/11 07:44:29;;;;;;;0.93;0.55;;;18.20;1.00;;;;;;4832440;29;20414;-45
2023/05/11 07:46:57;;;;;;;3.70;0.85;;;18.20;1.00;;;;;;4842714;29;20383;-45
2023/05/11 07:49:24;;;;;;;1.20;0.60;;;18.20;1.00;;;;;;4841636;29;20064;-45
2023/05/11 07:52:08;;;;;;;2.17;1.58;;;18.20;1.00;;;;;;4832860;29;20142;-45
2023/05/11 07:54:35;;;;;;;1.70;0.70;;;18.20;1.00;;;;;;4836759;29;20076;-44
2023/05/11 07:57:02;;;;;;;1.27;0.68;;;18.20;1.00;;;;;;4843470;29;20042;-44
2023/05/11 07:59:29;;;;;;;2.25;0.98;;;18.20;1.00;;;;;;4833193;29;20042;-44
2023/05/11 08:01:57;;;;;;;1.60;0.90;;;18.20;1.00;;;;;;4832806;29;20058;-45
2023/05/11 08:04:26;;;;;;;2.58;0.77;;;18.20;1.00;;;;;;4842214;29;20498;-44
2023/05/11 08:06:53;;;;;;;2.15;1.10;;;18.20;1.00;;;;;;4835632;29;20082;-44
2023/05/11 08:09:19;;;;;;;2.65;0.82;;;18.20;1.00;;;;;;4834178;29;20045;-44
2023/05/11 08:11:46;;;;;;;1.65;0.85;;;18.20;1.00;;;;;;4825090;29;20165;-46
2023/05/11 08:14:13;;;;;;;1.35;0.70;;;18.20;1.00;;;;;;4833032;29;20444;-44
2023/05/11 08:16:40;;;;;;;1.08;0.60;;;18.30;1.00;;;;;;4839160;29;20054;-44
2023/05/11 08:19:07;;;;;;;2.22;1.15;;;18.20;1.00;;;;;;4825026;29;20051;-44
2023/05/11 08:21:34;;;;;;;3.10;1.08;;;18.20;1.00;;;;;;4820698;29;20507;-44
2023/05/11 08:24:01;;;;;;;1.75;0.93;;;18.30;1.00;;;;;;4843033;29;20057;-44
2023/05/11 08:26:28;;;;;;;1.27;0.82;;;18.30;1.00;;;;;;4842760;29;20050;-45
2023/05/11 08:28:55;;;;;;;2.55;1.02;;;18.20;1.00;;;;;;4835569;29;20046;-45
2023/05/11 08:31:22;;;;;;;3.70;1.05;;;18.30;1.00;;;;;;4841319;29;20057;-44
2023/05/11 08:33:48;;;;;;;2.08;0.98;;;18.20;1.00;;;;;;4824704;29;20121;-45
2023/05/11 08:36:15;;;;;;;1.17;0.80;;;18.30;1.00;;;;;;4839380;29;20044;-45
2023/05/11 08:38:43;;;;;;;1.85;0.88;;;18.30;1.00;;;;;;4836410;29;20057;-45
2023/05/11 08:41:14;;;;;;;1.60;0.80;;;18.30;1.00;;;;;;4835158;29;20118;-45
2023/05/11 08:43:44;;;;;;;1.70;0.90;;;18.30;1.00;;;;;;4842952;29;20046;-45
2023/05/11 08:46:16;;;;;;;1.45;0.75;;;18.30;1.00;;;;;;4827507;29;20081;-45
2023/05/11 08:48:43;;;;;;;1.63;1.10;;;18.40;1.00;;;;;;4831228;29;20445;-46
2023/05/11 08:51:10;;;;;;;1.92;0.50;;;18.40;1.00;;;;;;4831770;29;20107;-45
2023/05/11 08:53:37;;;;;;;2.05;0.98;;;18.40;1.00;;;;;;4839414;29;20125;-44
2023/05/11 08:56:07;;;;;;;1.25;0.80;;;18.40;1.00;;;;;;4831758;29;20133;-45
2023/05/11 08:58:38;;;;;;;1.85;1.35;;;18.40;1.00;;;;;;4834255;29;20042;-44
2023/05/11 09:01:06;;;;;;;2.00;1.20;;;18.40;1.00;;;;;;4828210;29;20046;-45
2023/05/11 09:03:35;;;;;;;1.05;0.60;;;18.40;1.00;;;;;;4823961;29;20057;-45
2023/05/11 09:06:06;;;;;;;1.80;0.70;;;18.40;1.00;;;;;;4837958;29;20054;-45
2023/05/11 09:08:37;;;;;;;1.88;0.73;;;18.40;1.00;;;;;;4834962;29;20049;-44
2023/05/11 09:11:04;;;;;;;1.52;0.68;;;18.40;1.00;;;;;;4828352;29;20107;-44
2023/05/11 09:13:32;;;;;;;2.35;1.02;;;18.40;1.00;;;;;;4826617;29;20079;-44
2023/05/11 09:15:59;;;;;;;1.20;0.85;;;18.40;1.00;;;;;;4842010;29;20050;-44
2023/05/11 09:18:26;;;;;;;1.17;0.70;;;18.50;1.00;;;;;;4842059;29;20054;-44
2023/05/11 09:20:53;;;;;;;2.88;0.57;;;18.50;1.00;;;;;;4842328;29;20046;-45
2023/05/11 09:23:25;;;;;;;1.05;0.60;;;18.50;1.00;;;;;;4833589;29;20379;-45
2023/05/11 09:25:53;;;;;;;3.10;0.87;;;18.50;1.00;;;;;;4828779;29;20053;-46
2023/05/11 09:28:21;;;;;;;1.05;0.65;;;18.50;1.00;;;;;;4834347;29;20047;-44
2023/05/11 09:30:52;;;;;;;1.17;0.77;;;18.50;1.00;;;;;;4842117;29;20053;-45
2023/05/11 09:33:24;;;;;;;1.73;0.60;;;18.50;1.00;;;;;;4840931;29;20099;-46
2023/05/11 09:35:51;;;;;;;1.13;0.75;;;18.50;1.00;;;;;;4831024;29;20081;-44
2023/05/11 09:38:19;;;;;;;1.60;0.70;;;18.50;1.00;;;;;;4823413;29;20060;-43
2023/05/11 09:40:55;;;;;;;2.13;0.77;;;18.50;1.00;;;;;;4827881;29;20053;-43
2023/05/11 09:43:27;;;;;;;1.65;0.88;;;18.60;1.00;;;;;;4840215;29;20567;-43
2023/05/11 09:46:05;;;;;;;1.85;1.02;;;18.60;1.00;;;;;;4835785;29;20042;-45
2023/05/11 09:48:34;;;;;;;0.90;0.45;;;18.60;1.00;;;;;;4841563;29;20448;-44
2023/05/11 09:51:03;;;;;;;1.70;0.70;;;18.60;1.00;;;;;;4841576;29;20081;-43
2023/05/11 09:53:34;;;;;;;1.20;0.80;;;18.60;1.00;;;;;;4831546;29;20503;-44
2023/05/11 09:56:00;;;;;;;1.10;0.70;;;18.60;1.00;;;;;;4830890;29;20054;-43
2023/05/11 09:58:47;;;;;;;1.88;0.73;;;18.60;1.00;;;;;;4840003;29;20467;-43
2023/05/11 10:01:15;;;;;;;0.77;0.47;;;18.70;1.00;;;;;;4841262;29;20502;-43
2023/05/11 10:03:51;;;;;;;1.52;0.68;;;18.70;1.00;;;;;;4816027;29;20053;-44
2023/05/11 10:06:27;;;;;;;2.55;0.73;;;18.70;1.00;;;;;;4830379;29;20121;-43
2023/05/11 10:08:54;;;;;;;2.25;0.88;;;18.70;1.00;;;;;;4822773;29;20380;-45
2023/05/11 10:11:21;;;;;;;1.50;0.60;;;18.70;1.00;;;;;;4830938;29;20038;-44
2023/05/11 10:13:52;;;;;;;0.80;0.50;;;18.70;1.00;;;;;;4833716;29;20068;-45
2023/05/11 10:16:19;;;;;;;2.10;0.80;;;18.80;1.00;;;;;;4832748;29;20129;-44
2023/05/11 10:18:46;;;;;;;2.05;0.88;;;18.80;1.00;;;;;;4834499;29;20050;-44
2023/05/11 10:21:15;;;;;;;1.17;0.70;;;18.80;1.00;;;;;;4833837;29;20046;-44
2023/05/11 10:23:42;;;;;;;0.93;0.60;;;18.80;1.00;;;;;;4815929;29;20054;-43
2023/05/11 10:26:09;;;;;;;1.50;0.60;;;18.80;1.00;;;;;;4822848;29;20129;-43
2023/05/11 10:28:37;;;;;;;1.83;0.65;;;18.90;1.00;;;;;;4830245;29;20125;-44
2023/05/11 10:31:04;;;;;;;1.48;0.68;;;18.90;1.00;;;;;;4836425;29;20125;-44
2023/05/11 10:33:32;;;;;;;1.00;0.70;;;18.90;1.00;;;;;;4825770;29;20038;-44
2023/05/11 10:35:59;;;;;;;1.85;1.02;;;18.90;1.00;;;;;;4834039;29;20132;-43
2023/05/11 10:38:26;;;;;;;2.03;0.95;;;18.90;1.00;;;;;;4831461;29;20550;-44
2023/05/11 10:41:02;;;;;;;1.20;0.70;;;19.00;1.00;;;;;;4836314;29;20095;-45
2023/05/11 10:43:53;;;;;;;1.35;0.68;;;19.00;1.00;;;;;;4831151;29;20056;-45
2023/05/11 10:46:40;;;;;;;1.92;0.88;;;19.00;1.00;;;;;;4837757;29;20078;-43
2023/05/11 10:49:15;;;;;;;1.05;0.60;;;19.00;1.00;;;;;;4840902;29;20444;-45
2023/05/11 10:52:07;;;;;;;1.13;0.60;;;19.00;1.00;;;;;;4815318;29;20073;-43
2023/05/11 10:54:47;;;;;;;1.40;0.68;;;19.00;1.00;;;;;;4839393;29;20137;-43
2023/05/11 10:57:31;;;;;;;0.98;0.75;;;19.10;1.00;;;;;;4840647;29;20042;-45
2023/05/11 11:00:29;;;;;;;1.25;0.75;;;19.10;1.00;;;;;;4830223;29;20129;-43
2023/05/11 11:02:57;;;;;;;0.90;0.63;;;19.10;1.00;;;;;;4824344;29;20042;-43
2023/05/11 11:05:35;;;;;;;1.52;1.00;;;19.10;1.00;;;;;;4837885;29;20123;-44
2023/05/11 11:08:06;;;;;;;1.25;0.70;;;19.10;1.00;;;;;;4835136;29;20047;-43
2023/05/11 11:10:44;;;;;;;1.08;0.57;;;19.10;1.00;;;;;;4829927;29;20041;-44
2023/05/11 11:13:13;;;;;;;1.92;0.90;;;19.10;1.00;;;;;;4836777;29;20116;-43
2023/05/11 11:15:55;;;;;;;1.63;0.85;;;19.10;1.00;;;;;;4840114;29;20563;-44
2023/05/11 11:18:24;;;;;;;0.88;0.70;;;19.10;1.00;;;;;;4840385;29;20042;-46
2023/05/11 11:20:53;;;;;;;1.33;0.70;;;19.10;1.00;;;;;;4841531;29;20324;-45
2023/05/11 11:23:38;;;;;;;1.42;0.68;;;19.20;1.00;;;;;;4843855;29;20388;-46
2023/05/11 11:26:07;;;;;;;2.20;0.98;;;19.20;1.00;;;;;;4830434;29;20046;-47
2023/05/11 11:28:52;;;;;;;3.20;1.00;;;19.20;1.00;;;;;;4840798;29;20049;-46
2023/05/11 11:31:24;;;;;;;1.40;0.75;;;19.20;1.00;;;;;;4825796;29;20094;-44
2023/05/11 11:33:52;;;;;;;2.22;1.10;;;19.20;1.00;;;;;;4843909;29;20395;-46
2023/05/11 11:36:54;;;;;;;1.20;0.70;;;19.20;1.00;;;;;;4836413;29;20485;-45
2023/05/11 11:39:21;;;;;;;1.00;0.77;;;19.20;1.00;;;;;;4825608;29;20043;-45
2023/05/11 11:42:11;;;;;;;1.95;0.90;;;19.20;1.00;;;;;;4838478;29;20049;-44
2023/05/11 11:44:39;;;;;;;1.95;0.70;;;19.20;1.00;;;;;;4841234;29;20507;-44
2023/05/11 11:47:20;;;;;;;1.58;1.02;;;19.20;1.00;;;;;;4825401;29;20038;-46
2023/05/11 11:49:52;;;;;;;1.92;0.80;;;19.30;1.00;;;;;;4836682;29;20452;-46
2023/05/11 11:52:25;;;;;;;1.27;0.43;;;19.20;1.00;;;;;;4828848;29;20047;-45
2023/05/11 11:54:53;;;;;;;2.63;0.60;;;19.30;1.00;;;;;;4826512;29;20442;-45
2023/05/11 11:57:32;;;;;;;1.10;0.60;;;19.30;1.00;;;;;;4840288;29;20463;-44
2023/05/11 12:00:09;;;;;;;1.60;0.80;;;19.30;1.00;;;;;;4836255;29;20074;-46
2023/05/11 12:02:43;;;;;;;1.13;0.70;;;19.30;1.00;;;;;;4835984;29;20057;-45
2023/05/11 12:05:21;;;;;;;1.33;0.80;;;19.30;1.00;;;;;;4837272;29;20046;-44
2023/05/11 12:07:51;;;;;;;1.00;0.50;;;19.30;1.00;;;;;;4832871;29;20122;-43
2023/05/11 12:10:20;;;;;;;1.08;0.65;;;19.30;1.00;;;;;;4832899;29;20095;-45
2023/05/11 12:12:49;;;;;;;1.98;0.60;;;19.30;1.00;;;;;;4828664;29;20077;-46
2023/05/11 12:15:31;;;;;;;1.48;0.52;;;19.30;1.00;;;;;;4836271;29;20043;-46
2023/05/11 12:18:01;;;;;;;1.20;0.47;;;19.30;1.00;;;;;;4823597;29;20046;-44
2023/05/11 12:20:28;;;;;;;1.27;0.60;;;19.30;1.00;;;;;;4834915;29;20403;-43
2023/05/11 12:22:55;;;;;;;1.85;0.82;;;19.30;1.00;;;;;;4825029;29;20049;-43
2023/05/11 12:25:22;;;;;;;2.50;0.82;;;19.30;1.00;;;;;;4824518;29;20069;-45
2023/05/11 12:28:02;;;;;;;1.50;1.00;;;19.30;1.00;;;;;;4842986;29;20414;-43
2023/05/11 12:30:31;;;;;;;1.35;0.60;;;19.40;1.00;;;;;;4835496;29;20043;-45
2023/05/11 12:33:00;;;;;;;2.22;0.95;;;19.40;1.00;;;;;;4834435;29;20042;-45
2023/05/11 12:35:29;;;;;;;1.08;0.45;;;19.40;1.00;;;;;;4842537;29;20052;-44
2023/05/11 12:37:58;;;;;;;1.20;0.50;;;19.40;1.00;;;;;;4843059;29;20046;-43
2023/05/11 12:40:24;;;;;;;1.98;0.60;;;19.40;1.00;;;;;;4834980;29;20045;-45
2023/05/11 12:42:54;;;;;;;1.25;0.70;;;19.40;1.00;;;;;;4826641;29;20043;-46
2023/05/11 12:45:23;;;;;;;1.00;0.65;;;19.40;1.00;;;;;;4831697;29;20062;-45
2023/05/11 12:47:52;;;;;;;0.90;0.50;;;19.40;1.00;;;;;;4817311;29;20046;-46
2023/05/11 12:50:19;;;;;;;1.80;0.50;;;19.40;1.00;;;;;;4839238;29;20113;-43
2023/05/11 12:52:47;;;;;;;0.73;0.50;;;19.40;1.00;;;;;;4827195;29;20392;-45
2023/05/11 12:55:26;;;;;;;2.25;0.70;;;19.40;1.00;;;;;;4842716;29;20048;-44
2023/05/11 12:58:12;;;;;;;0.80;0.60;;;19.40;1.00;;;;;;4825170;29;20498;-44
2023/05/11 13:00:57;;;;;;;1.65;0.90;;;19.40;1.00;;;;;;4824296;29;20046;-44
2023/05/11 13:03:25;;;;;;;0.80;0.50;;;19.40;1.00;;;;;;4839367;29;20042;-45
2023/05/11 13:06:10;;;;;;;1.27;0.50;;;19.40;1.00;;;;;;4828351;29;20518;-46
2023/05/11 13:08:42;;;;;;;2.78;1.00;;;19.50;1.00;;;;;;4833156;29;20056;-44
2023/05/11 13:11:25;;;;;;;1.45;0.70;;;19.50;1.00;;;;;;4832219;29;20049;-47
2023/05/11 13:13:54;;;;;;;1.10;0.60;;;19.50;1.00;;;;;;4820391;29;20038;-44
2023/05/11 13:16:30;;;;;;;1.08;0.70;;;19.50;1.00;;;;;;4842242;29;20076;-43
2023/05/11 13:19:06;;;;;;;1.33;0.60;;;19.50;1.00;;;;;;4825070;29;20122;-47
2023/05/11 13:21:34;;;;;;;1.45;0.75;;;19.50;1.00;;;;;;4832671;29;20046;-43
2023/05/11 13:24:02;;;;;;;1.38;0.60;;;19.50;1.00;;;;;;4837515;29;20562;-44
2023/05/11 13:26:30;;;;;;;1.88;0.50;;;19.50;1.00;;;;;;4831654;29;20098;-45
2023/05/11 13:28:58;;;;;;;0.68;0.60;;;19.50;1.00;;;;;;4838117;29;20100;-44